sensor_id;sensor_type;location;lat;lon;timestamp;pressure;altitude;pressure_sealevel;temperature;humidity
57606;BME280;43430;48.204;11.556;2023-07-30T00:00:36;95723.34;;;17.84;100.00
57606;BME280;43430;48.204;11.556;2023-07-30T00:03:02;95730.31;;;17.79;100.00
57606;BME280;43430;48.204;11.556;2023-07-30T00:05:27;95736.41;;;17.75;100.00
57606;BME280;43430;48.204;11.556;2023-07-30T00:07:53;95739.38;;;17.63;100.00
57606;BME280;43430;48.204;11.556;2023-07-30T00:10:19;95738.56;;;17.68;100.00
57606;BME280;43430;48.204;11.556;2023-07-30T00:12:45;95732.72;;;17.66;100.00
57606;BME280;43430;48.204;11.556;2023-07-30T00:15:10;95737.25;;;17.60;100.00
57606;BME280;43430;48.204;11.556;2023-07-30T00:17:36;95735.94;;;17.58;100.00
57606;BME280;43430;48.204;11.556;2023-07-30T00:20:01;95726.31;;;17.62;100.00
57606;BME280;43430;48.204;11.556;2023-07-30T00:22:27;95728.97;;;17.67;100.00
57606;BME280;43430;48.204;11.556;2023-07-30T00:24:52;95726.31;;;17.62;100.00
57606;BME280;43430;48.204;11.556;2023-07-30T00:27:18;95733.22;;;17.68;100.00
57606;BME280;43430;48.204;11.556;2023-07-30T00:29:43;95724.97;;;17.64;100.00
57606;BME280;43430;48.204;11.556;2023-07-30T00:32:08;95726.06;;;17.63;100.00
57606;BME280;43430;48.204;11.556;2023-07-30T00:34:34;95729.56;;;17.59;100.00
57606;BME280;43430;48.204;11.556;2023-07-30T00:36:59;95738.06;;;17.66;100.00
57606;BME280;43430;48.204;11.556;2023-07-30T00:39:25;95736.47;;;17.60;100.00
57606;BME280;43430;48.204;11.556;2023-07-30T00:41:50;95742.31;;;17.62;100.00
57606;BME280;43430;48.204;11.556;2023-07-30T00:44:16;95741.00;;;17.59;100.00
57606;BME280;43430;48.204;11.556;2023-07-30T00:46:41;95736.72;;;17.58;100.00
57606;BME280;43430;48.204;11.556;2023-07-30T00:49:06;95744.50;;;17.49;100.00
57606;BME280;43430;48.204;11.556;2023-07-30T00:51:33;95755.69;;;17.46;100.00
57606;BME280;43430;48.204;11.556;2023-07-30T00:53:59;95756.50;;;17.42;100.00
57606;BME280;43430;48.204;11.556;2023-07-30T00:56:25;95770.63;;;17.42;100.00
57606;BME280;43430;48.204;11.556;2023-07-30T00:58:52;95769.06;;;17.41;100.00
57606;BME280;43430;48.204;11.556;2023-07-30T01:01:18;95769.56;;;17.43;100.00
57606;BME280;43430;48.204;11.556;2023-07-30T01:03:43;95768.75;;;17.38;100.00
57606;BME280;43430;48.204;11.556;2023-07-30T01:06:10;95766.63;;;17.40;100.00
57606;BME280;43430;48.204;11.556;2023-07-30T01:08:35;95766.34;;;17.46;100.00
57606;BME280;43430;48.204;11.556;2023-07-30T01:11:02;95757.03;;;17.44;100.00
57606;BME280;43430;48.204;11.556;2023-07-30T01:13:28;95757.28;;;17.47;100.00
57606;BME280;43430;48.204;11.556;2023-07-30T01:15:54;95747.16;;;17.44;100.00
57606;BME280;43430;48.204;11.556;2023-07-30T01:18:19;95747.19;;;17.39;100.00
57606;BME280;43430;48.204;11.556;2023-07-30T01:20:45;95755.97;;;17.40;100.00
57606;BME280;43430;48.204;11.556;2023-07-30T01:23:10;95757.31;;;17.42;100.00
57606;BME280;43430;48.204;11.556;2023-07-30T01:25:37;95749.31;;;17.42;100.00
57606;BME280;43430;48.204;11.556;2023-07-30T01:28:04;95746.38;;;17.44;100.00
57606;BME280;43430;48.204;11.556;2023-07-30T01:30:33;95752.50;;;17.44;100.00
57606;BME280;43430;48.204;11.556;2023-07-30T01:32:59;95754.13;;;17.35;100.00
57606;BME280;43430;48.204;11.556;2023-07-30T01:35:28;95756.50;;;17.37;100.00
57606;BME280;43430;48.204;11.556;2023-07-30T01:37:55;95753.59;;;17.33;100.00
57606;BME280;43430;48.204;11.556;2023-07-30T01:40:21;95765.31;;;17.37;100.00
57606;BME280;43430;48.204;11.556;2023-07-30T01:42:49;95761.59;;;17.33;100.00
57606;BME280;43430;48.204;11.556;2023-07-30T01:45:14;95749.59;;;17.36;100.00
57606;BME280;43430;48.204;11.556;2023-07-30T01:47:40;95756.50;;;17.42;100.00
57606;BME280;43430;48.204;11.556;2023-07-30T01:50:05;95754.66;;;17.42;100.00
57606;BME280;43430;48.204;11.556;2023-07-30T01:52:31;95748.25;;;17.33;100.00
57606;BME280;43430;48.204;11.556;2023-07-30T01:54:56;95741.84;;;17.34;100.00
57606;BME280;43430;48.204;11.556;2023-07-30T01:57:23;95744.25;;;17.41;100.00
57606;BME280;43430;48.204;11.556;2023-07-30T01:59:49;95742.41;;;17.41;100.00
57606;BME280;43430;48.204;11.556;2023-07-30T02:02:14;95742.09;;;17.53;100.00
57606;BME280;43430;48.204;11.556;2023-07-30T02:04:39;95745.81;;;17.47;100.00
57606;BME280;43430;48.204;11.556;2023-07-30T02:07:05;95746.09;;;17.50;100.00
57606;BME280;43430;48.204;11.556;2023-07-30T02:09:39;95747.16;;;17.44;100.00
57606;BME280;43430;48.204;11.556;2023-07-30T02:12:05;95741.81;;;17.44;100.00
57606;BME280;43430;48.204;11.556;2023-07-30T02:14:30;95744.25;;;17.46;100.00
57606;BME280;43430;48.204;11.556;2023-07-30T02:16:56;95742.13;;;17.43;100.00
57606;BME280;43430;48.204;11.556;2023-07-30T02:19:21;95743.69;;;17.49;100.00
57606;BME280;43430;48.204;11.556;2023-07-30T02:21:47;95754.91;;;17.46;100.00
57606;BME280;43430;48.204;11.556;2023-07-30T02:24:12;95759.44;;;17.45;100.00
57606;BME280;43430;48.204;11.556;2023-07-30T02:26:38;95749.03;;;17.49;100.00
57606;BME280;43430;48.204;11.556;2023-07-30T02:29:04;95748.25;;;17.48;100.00
57606;BME280;43430;48.204;11.556;2023-07-30T02:31:29;95745.81;;;17.47;100.00
57606;BME280;43430;48.204;11.556;2023-07-30T02:33:55;95748.25;;;17.48;100.00
57606;BME280;43430;48.204;11.556;2023-07-30T02:36:21;95749.03;;;17.44;100.00
57606;BME280;43430;48.204;11.556;2023-07-30T02:38:46;95753.06;;;17.41;100.00
57606;BME280;43430;48.204;11.556;2023-07-30T02:41:12;95755.97;;;17.40;100.00
57606;BME280;43430;48.204;11.556;2023-07-30T02:43:37;95769.56;;;17.33;100.00
57606;BME280;43430;48.204;11.556;2023-07-30T02:46:02;95784.53;;;17.03;100.00
57606;BME280;43430;48.204;11.556;2023-07-30T02:48:28;95798.13;;;16.92;100.00
57606;BME280;43430;48.204;11.556;2023-07-30T02:50:53;95807.91;;;16.71;100.00
57606;BME280;43430;48.204;11.556;2023-07-30T02:53:18;95824.66;;;16.51;100.00
57606;BME280;43430;48.204;11.556;2023-07-30T02:55:44;95844.03;;;16.41;100.00
57606;BME280;43430;48.204;11.556;2023-07-30T02:58:09;95868.25;;;16.40;100.00
57606;BME280;43430;48.204;11.556;2023-07-30T03:00:34;95869.06;;;16.35;100.00
57606;BME280;43430;48.204;11.556;2023-07-30T03:03:00;95876.44;;;16.23;100.00
57606;BME280;43430;48.204;11.556;2023-07-30T03:05:26;95879.94;;;16.28;100.00
57606;BME280;43430;48.204;11.556;2023-07-30T03:07:52;95886.56;;;16.26;100.00
57606;BME280;43430;48.204;11.556;2023-07-30T03:10:17;95892.16;;;16.24;100.00
57606;BME280;43430;48.204;11.556;2023-07-30T03:12:43;95896.88;;;16.12;100.00
57606;BME280;43430;48.204;11.556;2023-07-30T03:15:08;95902.44;;;16.05;100.00
57606;BME280;43430;48.204;11.556;2023-07-30T03:17:34;95912.28;;;16.05;100.00
57606;BME280;43430;48.204;11.556;2023-07-30T03:19:59;95912.44;;;15.93;100.00
57606;BME280;43430;48.204;11.556;2023-07-30T03:22:24;95914.25;;;15.82;100.00
57606;BME280;43430;48.204;11.556;2023-07-30T03:24:50;95912.09;;;15.79;100.00
57606;BME280;43430;48.204;11.556;2023-07-30T03:27:15;95915.59;;;15.80;100.00
57606;BME280;43430;48.204;11.556;2023-07-30T03:29:41;95915.88;;;15.83;100.00
57606;BME280;43430;48.204;11.556;2023-07-30T03:32:06;95921.19;;;15.83;100.00
57606;BME280;43430;48.204;11.556;2023-07-30T03:34:32;95920.97;;;15.90;100.00
57606;BME280;43430;48.204;11.556;2023-07-30T03:36:57;95923.63;;;15.90;100.00
57606;BME280;43430;48.204;11.556;2023-07-30T03:39:25;95920.91;;;15.85;100.00
57606;BME280;43430;48.204;11.556;2023-07-30T03:41:52;95928.91;;;15.85;100.00
57606;BME280;43430;48.204;11.556;2023-07-30T03:44:18;95932.84;;;15.82;100.00
57606;BME280;43430;48.204;11.556;2023-07-30T03:46:43;95939.25;;;15.81;100.00
57606;BME280;43430;48.204;11.556;2023-07-30T03:49:09;95929.47;;;15.87;100.00
57606;BME280;43430;48.204;11.556;2023-07-30T03:51:34;95940.31;;;15.85;100.00
57606;BME280;43430;48.204;11.556;2023-07-30T03:54:00;95948.06;;;15.87;100.00
57606;BME280;43430;48.204;11.556;2023-07-30T03:56:25;95946.41;;;15.81;100.00
57606;BME280;43430;48.204;11.556;2023-07-30T03:58:51;95941.63;;;15.78;100.00
57606;BME280;43430;48.204;11.556;2023-07-30T04:01:16;95948.81;;;15.82;100.00
57606;BME280;43430;48.204;11.556;2023-07-30T04:03:41;95952.25;;;15.78;100.00
57606;BME280;43430;48.204;11.556;2023-07-30T04:06:07;95955.41;;;15.75;100.00
57606;BME280;43430;48.204;11.556;2023-07-30T04:08:32;95950.16;;;15.85;100.00
57606;BME280;43430;48.204;11.556;2023-07-30T04:10:57;95955.25;;;15.86;100.00
57606;BME280;43430;48.204;11.556;2023-07-30T04:13:23;95958.16;;;15.85;100.00
57606;BME280;43430;48.204;11.556;2023-07-30T04:15:48;95961.94;;;15.94;100.00
57606;BME280;43430;48.204;11.556;2023-07-30T04:18:13;95955.56;;;15.95;100.00
57606;BME280;43430;48.204;11.556;2023-07-30T04:20:39;95951.84;;;15.96;100.00
57606;BME280;43430;48.204;11.556;2023-07-30T04:23:04;95949.22;;;16.01;100.00
57606;BME280;43430;48.204;11.556;2023-07-30T04:25:29;95949.22;;;16.01;100.00
57606;BME280;43430;48.204;11.556;2023-07-30T04:27:55;95954.31;;;16.08;100.00
57606;BME280;43430;48.204;11.556;2023-07-30T04:30:20;95961.50;;;16.12;100.00
57606;BME280;43430;48.204;11.556;2023-07-30T04:32:45;95974.69;;;16.34;100.00
57606;BME280;43430;48.204;11.556;2023-07-30T04:35:11;95972.94;;;16.55;100.00
57606;BME280;43430;48.204;11.556;2023-07-30T04:37:36;95979.19;;;16.81;100.00
57606;BME280;43430;48.204;11.556;2023-07-30T04:40:02;95985.34;;;16.92;100.00
57606;BME280;43430;48.204;11.556;2023-07-30T04:42:27;95987.75;;;16.99;100.00
57606;BME280;43430;48.204;11.556;2023-07-30T04:44:53;95989.13;;;17.01;100.00
57606;BME280;43430;48.204;11.556;2023-07-30T04:47:18;95981.09;;;16.96;100.00
57606;BME280;43430;48.204;11.556;2023-07-30T04:49:43;95978.66;;;16.84;100.00
57606;BME280;43430;48.204;11.556;2023-07-30T04:52:09;95981.41;;;17.10;100.00
57606;BME280;43430;48.204;11.556;2023-07-30T04:54:35;95983.06;;;17.31;100.00
57606;BME280;43430;48.204;11.556;2023-07-30T04:57:03;95980.94;;;17.28;100.00
57606;BME280;43430;48.204;11.556;2023-07-30T04:59:28;95977.22;;;17.55;100.00
57606;BME280;43430;48.204;11.556;2023-07-30T05:01:54;95976.41;;;17.65;100.00
57606;BME280;43430;48.204;11.556;2023-07-30T05:04:19;95980.41;;;17.57;100.00
57606;BME280;43430;48.204;11.556;2023-07-30T05:06:44;95959.88;;;17.37;100.00
57606;BME280;43430;48.204;11.556;2023-07-30T05:09:10;95951.84;;;17.27;100.00
57606;BME280;43430;48.204;11.556;2023-07-30T05:11:37;95954.28;;;17.28;100.00
57606;BME280;43430;48.204;11.556;2023-07-30T05:14:02;95949.72;;;17.34;100.00
57606;BME280;43430;48.204;11.556;2023-07-30T05:16:27;95946.53;;;17.37;100.00
57606;BME280;43430;48.204;11.556;2023-07-30T05:18:53;95935.88;;;17.32;100.00
57606;BME280;43430;48.204;11.556;2023-07-30T05:21:18;95936.41;;;17.44;100.00
57606;BME280;43430;48.204;11.556;2023-07-30T05:23:43;95930.03;;;17.35;100.00
57606;BME280;43430;48.204;11.556;2023-07-30T05:26:09;95924.19;;;17.48;100.00
57606;BME280;43430;48.204;11.556;2023-07-30T05:28:34;95926.03;;;17.63;100.00
57606;BME280;43430;48.204;11.556;2023-07-30T05:30:59;95925.25;;;17.93;100.00
57606;BME280;43430;48.204;11.556;2023-07-30T05:33:25;95919.88;;;18.14;100.00
57606;BME280;43430;48.204;11.556;2023-07-30T05:35:50;95899.75;;;18.37;100.00
57606;BME280;43430;48.204;11.556;2023-07-30T05:38:15;95898.69;;;18.48;100.00
57606;BME280;43430;48.204;11.556;2023-07-30T05:40:41;95889.66;;;18.29;100.00
57606;BME280;43430;48.204;11.556;2023-07-30T05:43:07;95887.88;;;18.03;100.00
57606;BME280;43430;48.204;11.556;2023-07-30T05:45:34;95893.75;;;17.95;100.00
57606;BME280;43430;48.204;11.556;2023-07-30T05:47:59;95883.06;;;18.00;100.00
57606;BME280;43430;48.204;11.556;2023-07-30T05:50:25;95888.94;;;18.08;100.00
57606;BME280;43430;48.204;11.556;2023-07-30T05:52:50;95884.13;;;17.99;100.00
57606;BME280;43430;48.204;11.556;2023-07-30T05:55:15;95901.22;;;17.88;100.00
57606;BME280;43430;48.204;11.556;2023-07-30T05:57:41;95899.63;;;17.87;100.00
57606;BME280;43430;48.204;11.556;2023-07-30T06:00:07;95900.44;;;17.88;100.00
57606;BME280;43430;48.204;11.556;2023-07-30T06:02:33;95890.53;;;18.03;100.00
57606;BME280;43430;48.204;11.556;2023-07-30T06:04:58;95882.25;;;18.05;100.00
57606;BME280;43430;48.204;11.556;2023-07-30T06:07:24;95886.78;;;18.10;100.00
57606;BME280;43430;48.204;11.556;2023-07-30T06:09:49;95884.91;;;18.10;100.00
57606;BME280;43430;48.204;11.556;2023-07-30T06:12:15;95883.03;;;18.21;100.00
57606;BME280;43430;48.204;11.556;2023-07-30T06:14:40;95886.19;;;18.23;100.00
57606;BME280;43430;48.204;11.556;2023-07-30T06:17:05;95877.13;;;18.24;100.00
57606;BME280;43430;48.204;11.556;2023-07-30T06:19:30;95880.53;;;18.40;100.00
57606;BME280;43430;48.204;11.556;2023-07-30T06:21:56;95871.44;;;18.41;100.00
57606;BME280;43430;48.204;11.556;2023-07-30T06:24:21;95871.72;;;18.44;100.00
57606;BME280;43430;48.204;11.556;2023-07-30T06:26:47;95858.88;;;18.46;100.00
57606;BME280;43430;48.204;11.556;2023-07-30T06:29:12;95853.19;;;18.63;100.00
57606;BME280;43430;48.204;11.556;2023-07-30T06:31:37;95841.41;;;18.69;100.00
57606;BME280;43430;48.204;11.556;2023-07-30T06:34:03;95843.34;;;18.59;100.00
57606;BME280;43430;48.204;11.556;2023-07-30T06:36:29;95845.44;;;18.72;100.00
57606;BME280;43430;48.204;11.556;2023-07-30T06:38:54;95844.00;;;18.85;100.00
57606;BME280;43430;48.204;11.556;2023-07-30T06:41:20;95850.13;;;18.90;100.00
57606;BME280;43430;48.204;11.556;2023-07-30T06:43:46;95843.63;;;19.02;100.00
57606;BME280;43430;48.204;11.556;2023-07-30T06:46:11;95844.97;;;18.99;100.00
57606;BME280;43430;48.204;11.556;2023-07-30T06:48:37;95846.59;;;19.00;100.00
57606;BME280;43430;48.204;11.556;2023-07-30T06:51:05;95839.47;;;19.19;100.00
57606;BME280;43430;48.204;11.556;2023-07-30T06:53:31;95843.78;;;19.20;100.00
57606;BME280;43430;48.204;11.556;2023-07-30T06:55:57;95835.44;;;19.27;100.00
57606;BME280;43430;48.204;11.556;2023-07-30T06:58:22;95834.63;;;19.56;100.00
57606;BME280;43430;48.204;11.556;2023-07-30T07:00:47;95834.09;;;19.54;100.00
57606;BME280;43430;48.204;11.556;2023-07-30T07:03:13;95817.03;;;19.50;100.00
57606;BME280;43430;48.204;11.556;2023-07-30T07:05:38;95823.56;;;19.38;100.00
57606;BME280;43430;48.204;11.556;2023-07-30T07:08:03;95812.56;;;19.40;100.00
57606;BME280;43430;48.204;11.556;2023-07-30T07:10:29;95820.25;;;19.52;100.00
57606;BME280;43430;48.204;11.556;2023-07-30T07:12:54;95833.09;;;19.50;100.00
57606;BME280;43430;48.204;11.556;2023-07-30T07:15:22;95818.59;;;19.56;100.00
57606;BME280;43430;48.204;11.556;2023-07-30T07:17:47;95820.78;;;19.49;100.00
57606;BME280;43430;48.204;11.556;2023-07-30T07:20:13;95812.16;;;19.57;100.00
57606;BME280;43430;48.204;11.556;2023-07-30T07:22:38;95813.41;;;19.70;100.00
57606;BME280;43430;48.204;11.556;2023-07-30T07:25:04;95816.47;;;19.82;100.00
57606;BME280;43430;48.204;11.556;2023-07-30T07:27:29;95807.03;;;19.89;100.00
57606;BME280;43430;48.204;11.556;2023-07-30T07:29:54;95815.56;;;19.91;100.00
57606;BME280;43430;48.204;11.556;2023-07-30T07:32:20;95815.28;;;20.17;100.00
57606;BME280;43430;48.204;11.556;2023-07-30T07:34:49;95811.75;;;20.22;100.00
57606;BME280;43430;48.204;11.556;2023-07-30T07:37:15;95811.53;;;20.37;100.00
57606;BME280;43430;48.204;11.556;2023-07-30T07:39:42;95798.31;;;20.46;100.00
57606;BME280;43430;48.204;11.556;2023-07-30T07:42:07;95798.81;;;20.48;100.00
57606;BME280;43430;48.204;11.556;2023-07-30T07:44:33;95812.84;;;20.39;100.00
57606;BME280;43430;48.204;11.556;2023-07-30T07:46:58;95809.72;;;20.56;100.00
57606;BME280;43430;48.204;11.556;2023-07-30T07:49:23;95809.66;;;20.61;100.00
57606;BME280;43430;48.204;11.556;2023-07-30T07:51:49;95806.75;;;20.77;100.00
57606;BME280;43430;48.204;11.556;2023-07-30T07:54:14;95803.91;;;21.06;100.00
57606;BME280;43430;48.204;11.556;2023-07-30T07:56:39;95784.53;;;21.09;100.00
57606;BME280;43430;48.204;11.556;2023-07-30T07:59:05;95789.09;;;21.08;100.00
57606;BME280;43430;48.204;11.556;2023-07-30T08:01:30;95791.91;;;21.17;100.00
57606;BME280;43430;48.204;11.556;2023-07-30T08:03:55;95781.69;;;21.19;100.00
57606;BME280;43430;48.204;11.556;2023-07-30T08:06:21;95785.66;;;21.41;100.00
57606;BME280;43430;48.204;11.556;2023-07-30T08:08:46;95777.50;;;21.46;100.00
57606;BME280;43430;48.204;11.556;2023-07-30T08:11:12;95784.59;;;21.69;100.00
57606;BME280;43430;48.204;11.556;2023-07-30T08:13:38;95782.31;;;21.63;100.00
57606;BME280;43430;48.204;11.556;2023-07-30T08:16:04;95781.19;;;21.64;100.00
57606;BME280;43430;48.204;11.556;2023-07-30T08:18:29;95792.34;;;21.24;100.00
57606;BME280;43430;48.204;11.556;2023-07-30T08:20:55;95793.91;;;21.25;100.00
57606;BME280;43430;48.204;11.556;2023-07-30T08:23:20;95799.28;;;21.25;100.00
57606;BME280;43430;48.204;11.556;2023-07-30T08:25:46;95793.81;;;20.98;100.00
57606;BME280;43430;48.204;11.556;2023-07-30T08:28:11;95805.66;;;20.78;100.00
57606;BME280;43430;48.204;11.556;2023-07-30T08:30:36;95802.25;;;20.91;100.00
57606;BME280;43430;48.204;11.556;2023-07-30T08:33:02;95801.16;;;20.92;100.00
57606;BME280;43430;48.204;11.556;2023-07-30T08:35:28;95794.13;;;20.77;100.00
57606;BME280;43430;48.204;11.556;2023-07-30T08:37:54;95789.56;;;20.78;100.00
57606;BME280;43430;48.204;11.556;2023-07-30T08:40:21;95784.50;;;20.76;100.00
57606;BME280;43430;48.204;11.556;2023-07-30T08:42:50;95788.41;;;21.03;100.00
57606;BME280;43430;48.204;11.556;2023-07-30T08:45:19;95773.81;;;21.42;100.00
57606;BME280;43430;48.204;11.556;2023-07-30T08:47:45;95752.41;;;21.69;100.00
57606;BME280;43430;48.204;11.556;2023-07-30T08:50:10;95745.84;;;21.75;100.00
57606;BME280;43430;48.204;11.556;2023-07-30T08:52:36;95746.22;;;21.83;100.00
57606;BME280;43430;48.204;11.556;2023-07-30T08:55:03;95746.31;;;21.77;100.00
57606;BME280;43430;48.204;11.556;2023-07-30T08:57:29;95759.94;;;21.81;100.00
57606;BME280;43430;48.204;11.556;2023-07-30T09:00:04;95736.38;;;21.92;100.00
57606;BME280;43430;48.204;11.556;2023-07-30T09:02:34;95742.94;;;21.44;100.00
57606;BME280;43430;48.204;11.556;2023-07-30T09:05:01;95739.91;;;21.32;100.00
57606;BME280;43430;48.204;11.556;2023-07-30T09:07:27;95741.97;;;21.21;100.00
57606;BME280;43430;48.204;11.556;2023-07-30T09:09:52;95737.97;;;21.38;100.00
57606;BME280;43430;48.204;11.556;2023-07-30T09:12:17;95742.38;;;21.61;100.00
57606;BME280;43430;48.204;11.556;2023-07-30T09:14:43;95731.13;;;21.59;100.00
57606;BME280;43430;48.204;11.556;2023-07-30T09:17:18;95727.72;;;21.67;100.00
57606;BME280;43430;48.204;11.556;2023-07-30T09:19:43;95719.00;;;21.62;100.00
57606;BME280;43430;48.204;11.556;2023-07-30T09:22:09;95714.13;;;21.77;100.00
57606;BME280;43430;48.204;11.556;2023-07-30T09:24:35;95710.63;;;21.91;100.00
57606;BME280;43430;48.204;11.556;2023-07-30T09:27:03;95701.66;;;22.23;100.00
57606;BME280;43430;48.204;11.556;2023-07-30T09:29:29;95705.63;;;22.12;100.00
57606;BME280;43430;48.204;11.556;2023-07-30T09:31:55;95705.03;;;22.28;100.00
57606;BME280;43430;48.204;11.556;2023-07-30T09:34:22;95704.31;;;22.37;100.00
57606;BME280;43430;48.204;11.556;2023-07-30T09:36:50;95705.75;;;22.20;100.00
57606;BME280;43430;48.204;11.556;2023-07-30T09:39:23;95704.44;;;22.04;100.00
57606;BME280;43430;48.204;11.556;2023-07-30T09:41:50;95711.19;;;22.29;100.00
57606;BME280;43430;48.204;11.556;2023-07-30T09:44:20;95702.84;;;22.31;100.00
57606;BME280;43430;48.204;11.556;2023-07-30T09:46:47;95699.72;;;22.37;100.00
57606;BME280;43430;48.204;11.556;2023-07-30T09:49:14;95697.97;;;22.55;100.00
57606;BME280;43430;48.204;11.556;2023-07-30T09:51:40;95701.97;;;22.58;100.00
57606;BME280;43430;48.204;11.556;2023-07-30T09:54:07;95703.34;;;22.55;100.00
57606;BME280;43430;48.204;11.556;2023-07-30T09:56:35;95695.63;;;22.85;100.00
57606;BME280;43430;48.204;11.556;2023-07-30T09:59:01;95683.25;;;22.97;100.00
57606;BME280;43430;48.204;11.556;2023-07-30T10:01:28;95692.91;;;22.98;100.00
57606;BME280;43430;48.204;11.556;2023-07-30T10:03:56;95699.06;;;22.77;100.00
57606;BME280;43430;48.204;11.556;2023-07-30T10:06:25;95705.91;;;22.60;100.00
57606;BME280;43430;48.204;11.556;2023-07-30T10:08:53;95714.09;;;22.78;100.00
57606;BME280;43430;48.204;11.556;2023-07-30T10:11:23;95711.78;;;23.07;100.00
57606;BME280;43430;48.204;11.556;2023-07-30T10:13:53;95701.47;;;23.01;100.00
57606;BME280;43430;48.204;11.556;2023-07-30T10:16:25;95696.09;;;23.01;100.00
57606;BME280;43430;48.204;11.556;2023-07-30T10:18:51;95700.16;;;23.20;100.00
57606;BME280;43430;48.204;11.556;2023-07-30T10:21:24;95697.09;;;22.91;100.00
57606;BME280;43430;48.204;11.556;2023-07-30T10:23:59;95697.25;;;22.86;100.00
57606;BME280;43430;48.204;11.556;2023-07-30T10:26:33;95703.47;;;22.72;100.00
57606;BME280;43430;48.204;11.556;2023-07-30T10:29:18;95708.59;;;22.83;100.00
57606;BME280;43430;48.204;11.556;2023-07-30T10:31:52;95695.94;;;22.83;100.00
57606;BME280;43430;48.204;11.556;2023-07-30T10:34:17;95703.59;;;22.90;100.00
57606;BME280;43430;48.204;11.556;2023-07-30T10:36:44;95709.84;;;22.99;100.00
57606;BME280;43430;48.204;11.556;2023-07-30T10:39:19;95702.78;;;23.12;100.00
57606;BME280;43430;48.204;11.556;2023-07-30T10:41:47;95705.91;;;23.05;100.00
57606;BME280;43430;48.204;11.556;2023-07-30T10:44:24;95718.28;;;23.06;100.00
57606;BME280;43430;48.204;11.556;2023-07-30T10:46:54;95712.16;;;22.92;100.00
57606;BME280;43430;48.204;11.556;2023-07-30T10:49:20;95708.66;;;22.91;100.00
57606;BME280;43430;48.204;11.556;2023-07-30T10:51:45;95717.16;;;22.62;100.00
57606;BME280;43430;48.204;11.556;2023-07-30T10:54:11;95703.53;;;22.59;100.00
57606;BME280;43430;48.204;11.556;2023-07-30T10:56:37;95705.66;;;22.70;100.00
57606;BME280;43430;48.204;11.556;2023-07-30T10:59:06;95706.78;;;22.69;100.00
57606;BME280;43430;48.204;11.556;2023-07-30T11:01:39;95693.66;;;22.68;100.00
57606;BME280;43430;48.204;11.556;2023-07-30T11:04:07;95706.78;;;22.92;100.00
57606;BME280;43430;48.204;11.556;2023-07-30T11:06:32;95700.28;;;23.15;100.00
57606;BME280;43430;48.204;11.556;2023-07-30T11:08:58;95692.16;;;23.38;100.00
57606;BME280;43430;48.204;11.556;2023-07-30T11:11:23;95688.06;;;23.72;100.00
57606;BME280;43430;48.204;11.556;2023-07-30T11:13:50;95683.34;;;23.86;100.00
57606;BME280;43430;48.204;11.556;2023-07-30T11:16:16;95682.50;;;23.77;100.00
57606;BME280;43430;48.204;11.556;2023-07-30T11:18:42;95690.84;;;23.27;100.00
57606;BME280;43430;48.204;11.556;2023-07-30T11:21:15;95696.25;;;23.27;100.00
57606;BME280;43430;48.204;11.556;2023-07-30T11:23:42;95704.66;;;23.03;100.00
57606;BME280;43430;48.204;11.556;2023-07-30T11:26:16;95712.41;;;23.04;100.00
57606;BME280;43430;48.204;11.556;2023-07-30T11:28:42;95716.34;;;22.84;100.00
57606;BME280;43430;48.204;11.556;2023-07-30T11:31:11;95722.41;;;23.12;100.00
57606;BME280;43430;48.204;11.556;2023-07-30T11:33:39;95711.75;;;22.85;100.00
57606;BME280;43430;48.204;11.556;2023-07-30T11:36:07;95727.53;;;22.55;100.00
57606;BME280;43430;48.204;11.556;2023-07-30T11:38:33;95743.59;;;22.33;100.00
57606;BME280;43430;48.204;11.556;2023-07-30T11:40:59;95752.19;;;21.52;100.00
57606;BME280;43430;48.204;11.556;2023-07-30T11:43:25;95752.47;;;21.50;100.00
57606;BME280;43430;48.204;11.556;2023-07-30T11:46:14;95756.09;;;21.27;100.00
57606;BME280;43430;48.204;11.556;2023-07-30T11:48:41;95770.22;;;20.81;100.00
57606;BME280;43430;48.204;11.556;2023-07-30T11:51:06;95758.28;;;20.92;100.00
57606;BME280;43430;48.204;11.556;2023-07-30T11:53:45;95748.25;;;21.30;100.00
57606;BME280;43430;48.204;11.556;2023-07-30T11:56:19;95739.50;;;21.71;100.00
57606;BME280;43430;48.204;11.556;2023-07-30T11:58:46;95750.09;;;21.76;100.00
57606;BME280;43430;48.204;11.556;2023-07-30T12:01:12;95751.00;;;21.72;100.00
57606;BME280;43430;48.204;11.556;2023-07-30T12:03:37;95748.81;;;21.74;100.00
57606;BME280;43430;48.204;11.556;2023-07-30T12:06:06;95765.66;;;20.81;100.00
57606;BME280;43430;48.204;11.556;2023-07-30T12:08:34;95772.72;;;20.58;100.00
57606;BME280;43430;48.204;11.556;2023-07-30T12:11:05;95770.16;;;20.86;100.00
57606;BME280;43430;48.204;11.556;2023-07-30T12:13:32;95777.31;;;20.91;100.00
57606;BME280;43430;48.204;11.556;2023-07-30T12:15:58;95784.59;;;20.52;100.00
57606;BME280;43430;48.204;11.556;2023-07-30T12:18:25;95782.41;;;20.73;100.00
57606;BME280;43430;48.204;11.556;2023-07-30T12:20:51;95780.78;;;20.91;100.00
57606;BME280;43430;48.204;11.556;2023-07-30T12:23:17;95790.56;;;21.01;100.00
57606;BME280;43430;48.204;11.556;2023-07-30T12:25:43;95787.91;;;21.33;100.00
57606;BME280;43430;48.204;11.556;2023-07-30T12:28:09;95789.25;;;21.17;100.00
57606;BME280;43430;48.204;11.556;2023-07-30T12:30:35;95796.59;;;20.93;100.00
57606;BME280;43430;48.204;11.556;2023-07-30T12:33:02;95802.09;;;21.01;100.00
57606;BME280;43430;48.204;11.556;2023-07-30T12:35:28;95797.75;;;20.86;100.00